createdAt,value
2019-04-03T00:09:41.400Z,61.9
2019-04-03T00:19:59.000Z,64.5
2019-04-03T00:31:26.075Z,65.6
2019-04-03T00:41:42.608Z,65.7
2019-04-03T00:52:00.706Z,65.9
2019-04-03T01:02:48.265Z,64.6
2019-04-03T01:13:02.220Z,64.7
2019-04-03T01:23:25.184Z,65.2
2019-04-03T01:33:46.483Z,64.2
2019-04-03T01:43:56.741Z,63.6
2019-04-03T01:54:08.365Z,63.6
2019-04-03T02:04:23.451Z,62.8
2019-04-03T02:15:08.811Z,62.5
2019-04-03T02:26:09.935Z,65.7
2019-04-03T02:37:30.750Z,63.7
2019-04-03T02:48:37.580Z,63.5
2019-04-03T02:58:54.336Z,63.3
2019-04-03T03:09:08.599Z,63.7
2019-04-03T03:19:33.867Z,64.3
2019-04-03T03:29:45.225Z,64.1
2019-04-03T03:39:57.327Z,63.6
2019-04-03T03:50:45.133Z,63.3
2019-04-03T04:00:57.976Z,62.8
2019-04-03T04:11:08.871Z,61.9
2019-04-03T04:21:26.075Z,61.8
2019-04-03T04:31:40.130Z,61.8
2019-04-03T04:41:57.369Z,61.2
2019-04-03T04:52:11.147Z,61.0
2019-04-03T05:02:38.739Z,61.2
2019-04-03T05:12:52.257Z,60.9
2019-04-03T05:23:55.738Z,61.0
2019-04-03T05:34:05.637Z,61.0
2019-04-03T05:44:51.359Z,60.7
2019-04-03T05:55:06.135Z,61.4
2019-04-03T06:05:20.134Z,61.8
2019-04-03T06:15:38.451Z,61.2
2019-04-03T06:26:11.465Z,60.9
2019-04-03T06:36:25.532Z,61.4
2019-04-03T06:46:40.095Z,60.8
2019-04-03T06:56:54.207Z,60.1
2019-04-03T07:07:09.960Z,60.6
2019-04-03T07:17:31.427Z,61.5
2019-04-03T07:27:42.485Z,60.4
2019-04-03T07:37:56.111Z,61.0
2019-04-03T07:48:10.612Z,61.8
2019-04-03T07:58:56.266Z,61.0
2019-04-03T08:09:43.671Z,60.9
2019-04-03T08:20:31.525Z,61.1
2019-04-03T08:30:45.733Z,60.8
2019-04-03T08:40:59.396Z,60.6
2019-04-03T08:51:10.931Z,60.6
2019-04-03T09:02:00.391Z,60.3
2019-04-03T09:12:14.894Z,60.1
2019-04-03T09:23:01.102Z,60.2
2019-04-03T09:33:14.786Z,59.4
2019-04-03T09:43:43.205Z,60.1
2019-04-03T09:53:59.684Z,60.1
2019-04-03T10:04:44.727Z,58.8
2019-04-03T10:15:31.066Z,57.4
2019-04-03T10:25:41.075Z,56.9
2019-04-03T10:35:55.241Z,56.6
2019-04-03T10:46:42.820Z,56.4
2019-04-03T10:56:57.503Z,56.3
2019-04-03T11:07:12.309Z,56.2
2019-04-03T11:18:57.145Z,56.4
2019-04-03T11:29:26.140Z,56.6
2019-04-03T11:39:47.717Z,56.0
2019-04-03T11:50:13.361Z,55.6
2019-04-03T12:01:22.985Z,55.6
2019-04-03T12:11:39.509Z,56.3
2019-04-03T12:21:53.412Z,56.7
2019-04-03T12:32:08.408Z,56.4
2019-04-03T12:42:19.306Z,56.1
2019-04-03T12:54:00.007Z,56.7
2019-04-03T13:04:48.199Z,56.3
2019-04-03T13:15:05.856Z,55.7
2019-04-03T13:25:56.272Z,55.5
2019-04-03T13:36:10.627Z,55.3
2019-04-03T13:46:34.468Z,55.7
2019-04-03T13:57:26.259Z,56.4
2019-04-03T14:07:40.593Z,56.8
2019-04-03T14:18:26.680Z,57.2
2019-04-03T14:29:12.521Z,56.4
2019-04-03T14:39:26.585Z,55.3
2019-04-03T14:49:41.198Z,55.1
2019-04-03T15:00:28.323Z,55.2
2019-04-03T15:10:52.232Z,55.9
2019-04-03T15:21:03.391Z,56.1
2019-04-03T15:31:17.471Z,56.3
2019-04-03T15:41:33.104Z,56.3
2019-04-03T15:51:44.258Z,55.9
2019-04-03T16:01:58.252Z,55.4
2019-04-03T16:12:58.915Z,55.4
2019-04-03T16:24:12.387Z,55.5
2019-04-03T16:34:21.847Z,55.5
2019-04-03T16:44:35.981Z,55.7
2019-04-03T16:54:50.139Z,55.7
2019-04-03T17:05:04.253Z,55.9
2019-04-03T17:15:52.629Z,55.9
2019-04-03T17:26:05.086Z,56.0
2019-04-03T17:36:19.811Z,56.0
2019-04-03T17:47:11.172Z,56.2
2019-04-03T17:57:24.882Z,56.4
2019-04-03T18:07:38.911Z,56.8
2019-04-03T18:17:55.878Z,57.1
2019-04-03T18:30:19.316Z,57.5
2019-04-03T18:45:24.562Z,57.5
2019-04-03T19:58:03.521Z,59.1
2019-04-03T20:09:36.421Z,59.4
2019-04-03T20:20:31.606Z,59.4
2019-04-03T20:31:26.235Z,59.7
2019-04-03T20:41:40.246Z,60.5
2019-04-03T20:51:56.372Z,60.5
2019-04-03T21:02:10.024Z,60.5
2019-04-03T21:12:21.886Z,60.4
2019-04-03T21:22:40.984Z,60.2
2019-04-03T21:33:30.608Z,59.7
2019-04-03T21:43:42.237Z,59.8
2019-04-03T21:53:55.721Z,59.8
2019-04-03T22:04:41.228Z,59.6
2019-04-03T22:15:30.046Z,59.3
2019-04-03T22:25:49.156Z,59.6
2019-04-03T22:36:34.870Z,59.6
2019-04-03T22:47:09.295Z,59.4
2019-04-03T22:57:23.259Z,59.4
2019-04-03T23:07:36.665Z,59.8
2019-04-03T23:17:50.907Z,59.9
2019-04-03T23:28:04.914Z,60.0
2019-04-03T23:38:49.719Z,60.0
2019-04-03T23:49:03.878Z,60.2
2019-04-03T23:59:15.357Z,60.3
